sensor_id;sensor_type;location;lat;lon;timestamp;temperature;humidity
18317;DHT22;9284;52.298;21.164;2022-10-19T03:17:26;10.00;99.90
18317;DHT22;9284;52.298;21.164;2022-10-19T03:19:56;10.10;99.90
18317;DHT22;9284;52.298;21.164;2022-10-19T03:22:25;10.00;99.90
18317;DHT22;9284;52.298;21.164;2022-10-19T03:24:53;10.00;99.90
18317;DHT22;9284;52.298;21.164;2022-10-19T03:27:21;10.00;99.90
18317;DHT22;9284;52.298;21.164;2022-10-19T03:29:51;10.00;99.90
18317;DHT22;9284;52.298;21.164;2022-10-19T03:32:21;9.90;99.90
18317;DHT22;9284;52.298;21.164;2022-10-19T03:34:51;9.90;99.90
18317;DHT22;9284;52.298;21.164;2022-10-19T03:37:21;9.90;99.90
18317;DHT22;9284;52.298;21.164;2022-10-19T03:39:51;9.90;99.90
18317;DHT22;9284;52.298;21.164;2022-10-19T03:42:20;9.90;99.90
18317;DHT22;9284;52.298;21.164;2022-10-19T03:44:48;9.90;99.90
18317;DHT22;9284;52.298;21.164;2022-10-19T03:47:16;10.00;99.90
18317;DHT22;9284;52.298;21.164;2022-10-19T03:49:46;10.00;99.90
18317;DHT22;9284;52.298;21.164;2022-10-19T03:52:17;10.10;99.90
18317;DHT22;9284;52.298;21.164;2022-10-19T03:54:52;10.10;99.90
18317;DHT22;9284;52.298;21.164;2022-10-19T03:57:20;10.10;99.90
18317;DHT22;9284;52.298;21.164;2022-10-19T03:59:53;10.20;99.90
18317;DHT22;9284;52.298;21.164;2022-10-19T04:02:23;10.20;99.90
18317;DHT22;9284;52.298;21.164;2022-10-19T04:04:53;10.20;99.90
18317;DHT22;9284;52.298;21.164;2022-10-19T04:07:21;10.20;99.90
18317;DHT22;9284;52.298;21.164;2022-10-19T04:09:52;10.20;99.90
18317;DHT22;9284;52.298;21.164;2022-10-19T04:12:21;10.20;99.90
18317;DHT22;9284;52.298;21.164;2022-10-19T04:14:53;10.20;99.90
18317;DHT22;9284;52.298;21.164;2022-10-19T04:17:24;10.30;99.90
18317;DHT22;9284;52.298;21.164;2022-10-19T04:19:54;10.30;99.90
18317;DHT22;9284;52.298;21.164;2022-10-19T04:22:24;10.30;99.90
18317;DHT22;9284;52.298;21.164;2022-10-19T04:24:52;10.30;99.90
18317;DHT22;9284;52.298;21.164;2022-10-19T04:27:23;10.30;99.90
18317;DHT22;9284;52.298;21.164;2022-10-19T04:29:52;10.30;99.90
18317;DHT22;9284;52.298;21.164;2022-10-19T04:32:23;10.30;99.90
18317;DHT22;9284;52.298;21.164;2022-10-19T04:34:51;10.30;99.90
18317;DHT22;9284;52.298;21.164;2022-10-19T04:37:22;10.30;99.90
18317;DHT22;9284;52.298;21.164;2022-10-19T04:39:51;10.30;99.90
18317;DHT22;9284;52.298;21.164;2022-10-19T04:42:19;10.30;99.90
18317;DHT22;9284;52.298;21.164;2022-10-19T04:44:49;10.30;99.90
18317;DHT22;9284;52.298;21.164;2022-10-19T04:47:18;10.30;99.90
18317;DHT22;9284;52.298;21.164;2022-10-19T04:49:46;10.30;99.90
18317;DHT22;9284;52.298;21.164;2022-10-19T04:52:15;10.30;99.90
18317;DHT22;9284;52.298;21.164;2022-10-19T04:54:44;10.30;99.90
18317;DHT22;9284;52.298;21.164;2022-10-19T04:57:13;10.30;99.90
18317;DHT22;9284;52.298;21.164;2022-10-19T04:59:45;10.30;99.90
18317;DHT22;9284;52.298;21.164;2022-10-19T05:02:15;10.30;99.90
18317;DHT22;9284;52.298;21.164;2022-10-19T05:04:46;10.30;99.90
18317;DHT22;9284;52.298;21.164;2022-10-19T05:07:15;10.30;99.90
18317;DHT22;9284;52.298;21.164;2022-10-19T05:09:45;10.30;99.90
18317;DHT22;9284;52.298;21.164;2022-10-19T05:12:13;10.30;99.90
18317;DHT22;9284;52.298;21.164;2022-10-19T05:14:43;10.20;99.90
18317;DHT22;9284;52.298;21.164;2022-10-19T05:17:12;10.20;99.90
18317;DHT22;9284;52.298;21.164;2022-10-19T05:19:43;10.20;99.90
18317;DHT22;9284;52.298;21.164;2022-10-19T05:22:17;10.30;99.90
18317;DHT22;9284;52.298;21.164;2022-10-19T05:24:53;10.20;99.90
18317;DHT22;9284;52.298;21.164;2022-10-19T05:27:24;10.20;99.90
18317;DHT22;9284;52.298;21.164;2022-10-19T05:29:52;10.20;99.90
18317;DHT22;9284;52.298;21.164;2022-10-19T05:32:22;10.20;99.90
18317;DHT22;9284;52.298;21.164;2022-10-19T05:34:50;10.20;99.90
18317;DHT22;9284;52.298;21.164;2022-10-19T05:37:22;10.20;99.90
18317;DHT22;9284;52.298;21.164;2022-10-19T05:39:54;10.30;99.90
18317;DHT22;9284;52.298;21.164;2022-10-19T05:42:23;10.20;99.90
18317;DHT22;9284;52.298;21.164;2022-10-19T05:44:53;10.30;99.90
18317;DHT22;9284;52.298;21.164;2022-10-19T05:47:22;10.20;99.90
18317;DHT22;9284;52.298;21.164;2022-10-19T05:49:56;10.30;99.90
18317;DHT22;9284;52.298;21.164;2022-10-19T05:52:25;10.30;99.90
18317;DHT22;9284;52.298;21.164;2022-10-19T05:54:54;10.20;99.90
18317;DHT22;9284;52.298;21.164;2022-10-19T05:57:24;10.30;99.90
18317;DHT22;9284;52.298;21.164;2022-10-19T05:59:52;10.30;99.90
18317;DHT22;9284;52.298;21.164;2022-10-19T06:02:24;10.20;99.90
18317;DHT22;9284;52.298;21.164;2022-10-19T06:04:52;10.20;99.90
18317;DHT22;9284;52.298;21.164;2022-10-19T06:07:20;10.20;99.90
18317;DHT22;9284;52.298;21.164;2022-10-19T06:09:49;10.20;99.90
18317;DHT22;9284;52.298;21.164;2022-10-19T06:12:19;10.20;99.90
18317;DHT22;9284;52.298;21.164;2022-10-19T06:14:51;10.20;99.90
18317;DHT22;9284;52.298;21.164;2022-10-19T06:17:19;10.20;99.90
18317;DHT22;9284;52.298;21.164;2022-10-19T06:19:47;10.20;99.90
18317;DHT22;9284;52.298;21.164;2022-10-19T06:22:15;10.10;99.90
18317;DHT22;9284;52.298;21.164;2022-10-19T06:24:44;10.20;99.90
18317;DHT22;9284;52.298;21.164;2022-10-19T06:27:13;10.20;99.90
18317;DHT22;9284;52.298;21.164;2022-10-19T06:29:42;10.40;99.90
18317;DHT22;9284;52.298;21.164;2022-10-19T06:32:11;10.60;99.90
18317;DHT22;9284;52.298;21.164;2022-10-19T06:34:39;10.70;99.90
18317;DHT22;9284;52.298;21.164;2022-10-19T06:37:07;10.80;99.90
18317;DHT22;9284;52.298;21.164;2022-10-19T06:39:35;10.80;99.90
18317;DHT22;9284;52.298;21.164;2022-10-19T06:42:04;10.80;99.90
18317;DHT22;9284;52.298;21.164;2022-10-19T06:44:33;10.80;99.90
18317;DHT22;9284;52.298;21.164;2022-10-19T06:47:03;10.80;99.90
18317;DHT22;9284;52.298;21.164;2022-10-19T06:49:31;10.80;99.90
18317;DHT22;9284;52.298;21.164;2022-10-19T06:52:01;10.80;99.90
18317;DHT22;9284;52.298;21.164;2022-10-19T06:54:32;10.70;99.90
18317;DHT22;9284;52.298;21.164;2022-10-19T06:57:00;10.60;99.90
18317;DHT22;9284;52.298;21.164;2022-10-19T06:59:29;10.60;99.90
18317;DHT22;9284;52.298;21.164;2022-10-19T07:01:57;10.60;99.90
18317;DHT22;9284;52.298;21.164;2022-10-19T07:04:27;10.60;99.90
18317;DHT22;9284;52.298;21.164;2022-10-19T07:06:58;10.50;99.90
18317;DHT22;9284;52.298;21.164;2022-10-19T07:09:28;10.50;99.90
18317;DHT22;9284;52.298;21.164;2022-10-19T07:11:58;10.40;99.90
18317;DHT22;9284;52.298;21.164;2022-10-19T07:14:30;10.50;99.90
18317;DHT22;9284;52.298;21.164;2022-10-19T07:17:04;10.70;99.90
18317;DHT22;9284;52.298;21.164;2022-10-19T07:19:37;10.80;99.90
18317;DHT22;9284;52.298;21.164;2022-10-19T07:22:06;10.80;99.90
18317;DHT22;9284;52.298;21.164;2022-10-19T07:24:35;10.90;99.90
18317;DHT22;9284;52.298;21.164;2022-10-19T07:27:04;10.80;99.90
18317;DHT22;9284;52.298;21.164;2022-10-19T07:29:35;10.80;99.90
18317;DHT22;9284;52.298;21.164;2022-10-19T07:32:04;10.70;99.90
18317;DHT22;9284;52.298;21.164;2022-10-19T07:34:34;10.70;99.90
18317;DHT22;9284;52.298;21.164;2022-10-19T07:37:03;10.70;99.90
18317;DHT22;9284;52.298;21.164;2022-10-19T07:39:31;10.70;99.90
18317;DHT22;9284;52.298;21.164;2022-10-19T07:42:06;10.70;99.90
18317;DHT22;9284;52.298;21.164;2022-10-19T07:44:34;10.70;99.90
18317;DHT22;9284;52.298;21.164;2022-10-19T07:47:03;10.80;99.90
18317;DHT22;9284;52.298;21.164;2022-10-19T07:49:35;10.80;99.90
18317;DHT22;9284;52.298;21.164;2022-10-19T07:52:07;10.90;99.90
18317;DHT22;9284;52.298;21.164;2022-10-19T07:54:36;10.90;99.90
18317;DHT22;9284;52.298;21.164;2022-10-19T07:57:06;11.00;99.90
18317;DHT22;9284;52.298;21.164;2022-10-19T07:59:34;11.00;99.90
18317;DHT22;9284;52.298;21.164;2022-10-19T08:02:03;11.00;99.90
18317;DHT22;9284;52.298;21.164;2022-10-19T08:04:36;11.10;99.90
18317;DHT22;9284;52.298;21.164;2022-10-19T08:07:27;11.10;99.90
18317;DHT22;9284;52.298;21.164;2022-10-19T08:10:39;11.10;99.90
18317;DHT22;9284;52.298;21.164;2022-10-19T08:13:09;11.20;99.90
18317;DHT22;9284;52.298;21.164;2022-10-19T08:15:41;11.20;99.90
18317;DHT22;9284;52.298;21.164;2022-10-19T08:18:10;11.20;99.90
18317;DHT22;9284;52.298;21.164;2022-10-19T08:20:46;11.20;99.90
18317;DHT22;9284;52.298;21.164;2022-10-19T08:23:17;11.30;99.90
18317;DHT22;9284;52.298;21.164;2022-10-19T08:25:48;11.30;99.90
18317;DHT22;9284;52.298;21.164;2022-10-19T08:28:17;11.30;99.90
18317;DHT22;9284;52.298;21.164;2022-10-19T08:30:45;11.30;99.90
18317;DHT22;9284;52.298;21.164;2022-10-19T08:33:14;11.20;99.90
18317;DHT22;9284;52.298;21.164;2022-10-19T08:35:44;11.30;99.90
18317;DHT22;9284;52.298;21.164;2022-10-19T08:38:13;11.20;99.90
18317;DHT22;9284;52.298;21.164;2022-10-19T08:40:44;11.10;99.90
18317;DHT22;9284;52.298;21.164;2022-10-19T08:43:23;11.00;99.90
18317;DHT22;9284;52.298;21.164;2022-10-19T08:46:07;11.10;99.90
18317;DHT22;9284;52.298;21.164;2022-10-19T08:48:47;11.10;99.90
18317;DHT22;9284;52.298;21.164;2022-10-19T08:51:15;11.10;99.90
18317;DHT22;9284;52.298;21.164;2022-10-19T08:53:51;11.10;99.90
18317;DHT22;9284;52.298;21.164;2022-10-19T08:56:29;11.10;99.90
18317;DHT22;9284;52.298;21.164;2022-10-19T08:59:31;11.40;99.90
18317;DHT22;9284;52.298;21.164;2022-10-19T09:02:09;11.50;99.90
18317;DHT22;9284;52.298;21.164;2022-10-19T09:04:50;11.60;99.90
18317;DHT22;9284;52.298;21.164;2022-10-19T09:07:28;11.50;99.90
18317;DHT22;9284;52.298;21.164;2022-10-19T09:10:21;11.40;99.90
18317;DHT22;9284;52.298;21.164;2022-10-19T09:13:02;11.40;99.90
18317;DHT22;9284;52.298;21.164;2022-10-19T09:15:40;11.40;99.90
18317;DHT22;9284;52.298;21.164;2022-10-19T09:18:15;11.40;99.90
18317;DHT22;9284;52.298;21.164;2022-10-19T09:20:47;11.40;99.90
18317;DHT22;9284;52.298;21.164;2022-10-19T09:23:21;11.30;99.90
18317;DHT22;9284;52.298;21.164;2022-10-19T09:25:53;11.30;99.90
18317;DHT22;9284;52.298;21.164;2022-10-19T09:28:35;11.30;99.90
18317;DHT22;9284;52.298;21.164;2022-10-19T09:31:12;11.30;99.90
18317;DHT22;9284;52.298;21.164;2022-10-19T09:33:43;11.30;99.90
18317;DHT22;9284;52.298;21.164;2022-10-19T09:36:18;11.40;99.90
18317;DHT22;9284;52.298;21.164;2022-10-19T09:39:17;11.40;99.90
18317;DHT22;9284;52.298;21.164;2022-10-19T09:42:08;11.40;99.90
18317;DHT22;9284;52.298;21.164;2022-10-19T09:44:55;11.40;99.90
18317;DHT22;9284;52.298;21.164;2022-10-19T09:47:44;11.10;99.90
18317;DHT22;9284;52.298;21.164;2022-10-19T09:50:37;11.00;99.90
18317;DHT22;9284;52.298;21.164;2022-10-19T09:53:35;10.70;99.90
18317;DHT22;9284;52.298;21.164;2022-10-19T09:56:24;10.60;99.90
18317;DHT22;9284;52.298;21.164;2022-10-19T09:59:32;10.40;99.90
18317;DHT22;9284;52.298;21.164;2022-10-19T10:02:50;10.30;99.90
18317;DHT22;9284;52.298;21.164;2022-10-19T10:05:51;10.40;99.90
18317;DHT22;9284;52.298;21.164;2022-10-19T10:08:45;10.40;99.90
18317;DHT22;9284;52.298;21.164;2022-10-19T10:11:36;10.50;99.90
18317;DHT22;9284;52.298;21.164;2022-10-19T10:14:24;10.50;99.90
18317;DHT22;9284;52.298;21.164;2022-10-19T10:16:57;10.50;99.90
18317;DHT22;9284;52.298;21.164;2022-10-19T10:19:34;10.60;99.90
18317;DHT22;9284;52.298;21.164;2022-10-19T10:22:23;10.80;99.90
18317;DHT22;9284;52.298;21.164;2022-10-19T10:25:17;10.90;99.90
18317;DHT22;9284;52.298;21.164;2022-10-19T10:28:18;11.00;99.90
18317;DHT22;9284;52.298;21.164;2022-10-19T10:30:58;11.00;99.90
18317;DHT22;9284;52.298;21.164;2022-10-19T10:33:40;11.00;99.90
18317;DHT22;9284;52.298;21.164;2022-10-19T10:36:32;10.90;99.90
18317;DHT22;9284;52.298;21.164;2022-10-19T10:39:14;10.90;99.90
18317;DHT22;9284;52.298;21.164;2022-10-19T10:41:50;10.90;99.90
18317;DHT22;9284;52.298;21.164;2022-10-19T10:44:23;11.00;99.90
18317;DHT22;9284;52.298;21.164;2022-10-19T10:46:59;11.10;99.90
18317;DHT22;9284;52.298;21.164;2022-10-19T10:49:31;11.20;99.90
18317;DHT22;9284;52.298;21.164;2022-10-19T10:52:06;11.20;99.90
18317;DHT22;9284;52.298;21.164;2022-10-19T10:54:42;11.10;99.90
18317;DHT22;9284;52.298;21.164;2022-10-19T10:57:26;11.10;99.90
18317;DHT22;9284;52.298;21.164;2022-10-19T11:00:04;11.30;99.90
18317;DHT22;9284;52.298;21.164;2022-10-19T11:02:44;11.30;99.90
18317;DHT22;9284;52.298;21.164;2022-10-19T11:05:27;11.30;99.90
18317;DHT22;9284;52.298;21.164;2022-10-19T11:08:05;11.40;99.90
18317;DHT22;9284;52.298;21.164;2022-10-19T11:10:42;11.30;99.90
18317;DHT22;9284;52.298;21.164;2022-10-19T11:13:24;11.20;99.90
18317;DHT22;9284;52.298;21.164;2022-10-19T11:15:57;11.30;99.90
18317;DHT22;9284;52.298;21.164;2022-10-19T11:18:30;11.30;99.90
18317;DHT22;9284;52.298;21.164;2022-10-19T11:21:08;11.60;99.90
18317;DHT22;9284;52.298;21.164;2022-10-19T11:23:58;12.00;99.90
18317;DHT22;9284;52.298;21.164;2022-10-19T11:26:40;12.00;99.90
18317;DHT22;9284;52.298;21.164;2022-10-19T11:29:28;12.10;1.00
18317;DHT22;9284;52.298;21.164;2022-10-19T11:32:01;12.20;1.00
18317;DHT22;9284;52.298;21.164;2022-10-19T11:34:50;12.30;1.00
18317;DHT22;9284;52.298;21.164;2022-10-19T11:37:27;12.40;1.00
18317;DHT22;9284;52.298;21.164;2022-10-19T11:40:07;12.50;1.00
18317;DHT22;9284;52.298;21.164;2022-10-19T11:42:48;12.30;1.00
18317;DHT22;9284;52.298;21.164;2022-10-19T11:45:30;12.20;1.00
18317;DHT22;9284;52.298;21.164;2022-10-19T11:51:15;12.40;1.00
18317;DHT22;9284;52.298;21.164;2022-10-19T11:53:57;12.30;99.90
18317;DHT22;9284;52.298;21.164;2022-10-19T11:56:33;12.30;1.00
18317;DHT22;9284;52.298;21.164;2022-10-19T11:59:30;12.30;1.00
18317;DHT22;9284;52.298;21.164;2022-10-19T12:02:15;12.20;1.00
18317;DHT22;9284;52.298;21.164;2022-10-19T12:04:52;12.00;99.90
18317;DHT22;9284;52.298;21.164;2022-10-19T12:07:35;11.80;99.90
18317;DHT22;9284;52.298;21.164;2022-10-19T12:10:16;11.60;99.90
18317;DHT22;9284;52.298;21.164;2022-10-19T12:12:51;11.50;99.90
18317;DHT22;9284;52.298;21.164;2022-10-19T12:15:25;11.40;1.00
18317;DHT22;9284;52.298;21.164;2022-10-19T12:18:00;11.30;1.00
18317;DHT22;9284;52.298;21.164;2022-10-19T12:20:33;11.10;1.00
18317;DHT22;9284;52.298;21.164;2022-10-19T12:23:13;10.90;99.90
18317;DHT22;9284;52.298;21.164;2022-10-19T12:25:43;10.90;1.00
18317;DHT22;9284;52.298;21.164;2022-10-19T12:28:19;10.90;99.90
18317;DHT22;9284;52.298;21.164;2022-10-19T12:30:49;11.00;1.00
18317;DHT22;9284;52.298;21.164;2022-10-19T12:33:21;11.20;1.00
18317;DHT22;9284;52.298;21.164;2022-10-19T12:36:07;11.40;99.90
18317;DHT22;9284;52.298;21.164;2022-10-19T12:38:47;11.50;99.90
18317;DHT22;9284;52.298;21.164;2022-10-19T12:41:30;11.70;99.90
18317;DHT22;9284;52.298;21.164;2022-10-19T12:44:19;11.90;99.90
18317;DHT22;9284;52.298;21.164;2022-10-19T12:46:51;12.20;91.00
18317;DHT22;9284;52.298;21.164;2022-10-19T12:49:46;12.50;99.90
18317;DHT22;9284;52.298;21.164;2022-10-19T12:55:11;12.90;1.00
18317;DHT22;9284;52.298;21.164;2022-10-19T12:57:40;13.10;1.00
18317;DHT22;9284;52.298;21.164;2022-10-19T13:00:22;13.00;1.00
18317;DHT22;9284;52.298;21.164;2022-10-19T13:02:57;12.80;1.00
18317;DHT22;9284;52.298;21.164;2022-10-19T13:05:28;12.60;1.00
18317;DHT22;9284;52.298;21.164;2022-10-19T13:08:00;12.60;1.00
18317;DHT22;9284;52.298;21.164;2022-10-19T13:10:30;12.50;1.00
18317;DHT22;9284;52.298;21.164;2022-10-19T13:13:00;12.40;23.20
18317;DHT22;9284;52.298;21.164;2022-10-19T13:15:53;12.30;1.00
18317;DHT22;9284;52.298;21.164;2022-10-19T13:21:47;11.80;99.90
18317;DHT22;9284;52.298;21.164;2022-10-19T13:24:31;11.40;1.00
18317;DHT22;9284;52.298;21.164;2022-10-19T13:27:26;10.90;1.00
18317;DHT22;9284;52.298;21.164;2022-10-19T13:29:55;10.80;1.00
18317;DHT22;9284;52.298;21.164;2022-10-19T13:32:43;10.70;1.00
18317;DHT22;9284;52.298;21.164;2022-10-19T13:35:32;10.50;1.00
18317;DHT22;9284;52.298;21.164;2022-10-19T13:38:22;10.40;99.90
18317;DHT22;9284;52.298;21.164;2022-10-19T13:41:00;10.40;1.00
18317;DHT22;9284;52.298;21.164;2022-10-19T13:43:31;10.50;1.00
18317;DHT22;9284;52.298;21.164;2022-10-19T13:46:12;10.50;99.90
18317;DHT22;9284;52.298;21.164;2022-10-19T13:49:19;10.40;1.00
18317;DHT22;9284;52.298;21.164;2022-10-19T13:52:11;10.40;1.00
18317;DHT22;9284;52.298;21.164;2022-10-19T13:55:07;10.40;99.90
18317;DHT22;9284;52.298;21.164;2022-10-19T13:57:51;10.40;99.90
18317;DHT22;9284;52.298;21.164;2022-10-19T14:00:28;10.50;99.90
18317;DHT22;9284;52.298;21.164;2022-10-19T14:06:14;10.60;99.90
18317;DHT22;9284;52.298;21.164;2022-10-19T14:11:47;10.60;99.90
18317;DHT22;9284;52.298;21.164;2022-10-19T14:14:18;10.60;99.90
18317;DHT22;9284;52.298;21.164;2022-10-19T14:16:53;10.50;75.60
18317;DHT22;9284;52.298;21.164;2022-10-19T14:19:30;10.50;99.90
18317;DHT22;9284;52.298;21.164;2022-10-19T14:22:16;10.40;99.90
18317;DHT22;9284;52.298;21.164;2022-10-19T14:24:44;10.30;99.90
18317;DHT22;9284;52.298;21.164;2022-10-19T14:27:17;10.30;55.10
18317;DHT22;9284;52.298;21.164;2022-10-19T14:29:48;10.30;64.80
18317;DHT22;9284;52.298;21.164;2022-10-19T14:32:19;10.10;99.90
18317;DHT22;9284;52.298;21.164;2022-10-19T14:34:48;10.10;99.90
18317;DHT22;9284;52.298;21.164;2022-10-19T14:37:22;10.00;99.90
18317;DHT22;9284;52.298;21.164;2022-10-19T14:39:58;10.00;99.90
18317;DHT22;9284;52.298;21.164;2022-10-19T14:42:39;10.00;99.90
18317;DHT22;9284;52.298;21.164;2022-10-19T14:45:16;9.90;99.90
18317;DHT22;9284;52.298;21.164;2022-10-19T14:47:53;9.90;99.90
18317;DHT22;9284;52.298;21.164;2022-10-19T14:50:26;10.00;99.90
18317;DHT22;9284;52.298;21.164;2022-10-19T14:53:07;10.00;99.90
18317;DHT22;9284;52.298;21.164;2022-10-19T14:55:41;10.10;99.90
18317;DHT22;9284;52.298;21.164;2022-10-19T14:58:14;10.00;99.90
18317;DHT22;9284;52.298;21.164;2022-10-19T15:00:46;10.00;99.90
18317;DHT22;9284;52.298;21.164;2022-10-19T15:03:20;9.90;99.90
18317;DHT22;9284;52.298;21.164;2022-10-19T15:05:53;9.80;99.90
18317;DHT22;9284;52.298;21.164;2022-10-19T15:08:30;9.80;99.90
18317;DHT22;9284;52.298;21.164;2022-10-19T15:11:00;9.70;99.90
18317;DHT22;9284;52.298;21.164;2022-10-19T15:13:31;9.60;99.90
18317;DHT22;9284;52.298;21.164;2022-10-19T15:16:00;9.60;99.90
18317;DHT22;9284;52.298;21.164;2022-10-19T15:18:34;9.60;99.90
18317;DHT22;9284;52.298;21.164;2022-10-19T15:21:18;9.50;99.90
18317;DHT22;9284;52.298;21.164;2022-10-19T15:23:50;9.50;99.90
18317;DHT22;9284;52.298;21.164;2022-10-19T15:26:23;9.40;99.90
18317;DHT22;9284;52.298;21.164;2022-10-19T15:29:05;9.30;99.90
18317;DHT22;9284;52.298;21.164;2022-10-19T15:31:34;9.20;99.90
18317;DHT22;9284;52.298;21.164;2022-10-19T15:34:03;9.10;99.90
18317;DHT22;9284;52.298;21.164;2022-10-19T15:36:32;9.00;99.90
18317;DHT22;9284;52.298;21.164;2022-10-19T15:39:04;9.00;99.90
18317;DHT22;9284;52.298;21.164;2022-10-19T15:41:53;9.00;1.00
18317;DHT22;9284;52.298;21.164;2022-10-19T15:44:31;9.00;1.00
18317;DHT22;9284;52.298;21.164;2022-10-19T15:47:17;9.10;99.90
18317;DHT22;9284;52.298;21.164;2022-10-19T15:49:52;9.10;99.90
18317;DHT22;9284;52.298;21.164;2022-10-19T15:52:22;9.00;99.90
18317;DHT22;9284;52.298;21.164;2022-10-19T15:54:54;9.00;99.90
18317;DHT22;9284;52.298;21.164;2022-10-19T15:57:29;8.90;99.90
18317;DHT22;9284;52.298;21.164;2022-10-19T15:59:59;8.80;99.90
18317;DHT22;9284;52.298;21.164;2022-10-19T16:02:30;8.70;99.90
18317;DHT22;9284;52.298;21.164;2022-10-19T16:04:58;8.70;1.00
18317;DHT22;9284;52.298;21.164;2022-10-19T16:07:29;8.60;1.00
18317;DHT22;9284;52.298;21.164;2022-10-19T16:09:59;8.50;1.00
18317;DHT22;9284;52.298;21.164;2022-10-19T16:12:28;8.40;99.90
18317;DHT22;9284;52.298;21.164;2022-10-19T16:14:56;8.30;5.90
18317;DHT22;9284;52.298;21.164;2022-10-19T16:17:24;8.30;41.30
18317;DHT22;9284;52.298;21.164;2022-10-19T16:19:53;8.20;99.90
18317;DHT22;9284;52.298;21.164;2022-10-19T16:22:21;8.00;1.00
18317;DHT22;9284;52.298;21.164;2022-10-19T16:24:49;7.90;8.60
18317;DHT22;9284;52.298;21.164;2022-10-19T16:27:19;7.90;99.90
18317;DHT22;9284;52.298;21.164;2022-10-19T16:29:47;7.90;99.90
18317;DHT22;9284;52.298;21.164;2022-10-19T16:32:15;7.90;1.00
18317;DHT22;9284;52.298;21.164;2022-10-19T16:34:45;7.80;1.00
18317;DHT22;9284;52.298;21.164;2022-10-19T16:37:13;7.80;1.00
18317;DHT22;9284;52.298;21.164;2022-10-19T16:39:42;7.80;99.90
18317;DHT22;9284;52.298;21.164;2022-10-19T16:42:10;7.70;1.00
18317;DHT22;9284;52.298;21.164;2022-10-19T16:44:40;7.60;99.90
18317;DHT22;9284;52.298;21.164;2022-10-19T16:47:08;7.60;99.90
18317;DHT22;9284;52.298;21.164;2022-10-19T16:49:36;7.60;99.90
18317;DHT22;9284;52.298;21.164;2022-10-19T16:52:05;7.50;1.00
18317;DHT22;9284;52.298;21.164;2022-10-19T16:54:33;7.50;1.00
18317;DHT22;9284;52.298;21.164;2022-10-19T16:57:01;7.40;1.00
18317;DHT22;9284;52.298;21.164;2022-10-19T16:59:35;7.30;1.00
18317;DHT22;9284;52.298;21.164;2022-10-19T17:02:05;7.20;99.90
18317;DHT22;9284;52.298;21.164;2022-10-19T17:04:34;7.30;85.40
18317;DHT22;9284;52.298;21.164;2022-10-19T17:07:02;7.20;1.00
18317;DHT22;9284;52.298;21.164;2022-10-19T17:09:30;7.30;99.90
18317;DHT22;9284;52.298;21.164;2022-10-19T17:12:09;7.30;99.90
18317;DHT22;9284;52.298;21.164;2022-10-19T17:14:39;7.20;1.00
18317;DHT22;9284;52.298;21.164;2022-10-19T17:17:09;7.10;99.90
18317;DHT22;9284;52.298;21.164;2022-10-19T17:19:39;7.00;1.00
18317;DHT22;9284;52.298;21.164;2022-10-19T17:22:09;7.00;99.90
18317;DHT22;9284;52.298;21.164;2022-10-19T17:24:37;6.90;1.00
18317;DHT22;9284;52.298;21.164;2022-10-19T17:27:06;6.90;99.90
18317;DHT22;9284;52.298;21.164;2022-10-19T17:29:34;6.70;72.00
18317;DHT22;9284;52.298;21.164;2022-10-19T17:32:05;6.70;1.00
18317;DHT22;9284;52.298;21.164;2022-10-19T17:34:37;6.60;30.50
18317;DHT22;9284;52.298;21.164;2022-10-19T17:37:06;6.60;1.00
18317;DHT22;9284;52.298;21.164;2022-10-19T17:39:34;6.50;1.00
18317;DHT22;9284;52.298;21.164;2022-10-19T17:42:07;6.40;99.90
18317;DHT22;9284;52.298;21.164;2022-10-19T17:44:35;6.40;99.90
18317;DHT22;9284;52.298;21.164;2022-10-19T17:47:04;6.40;99.90
18317;DHT22;9284;52.298;21.164;2022-10-19T17:49:32;6.30;1.00
18317;DHT22;9284;52.298;21.164;2022-10-19T17:52:02;6.30;1.00
18317;DHT22;9284;52.298;21.164;2022-10-19T17:54:34;6.30;99.90
18317;DHT22;9284;52.298;21.164;2022-10-19T17:57:23;6.30;1.00
18317;DHT22;9284;52.298;21.164;2022-10-19T17:59:53;6.40;1.00
18317;DHT22;9284;52.298;21.164;2022-10-19T18:02:21;6.30;1.00
18317;DHT22;9284;52.298;21.164;2022-10-19T18:04:50;6.30;1.00
18317;DHT22;9284;52.298;21.164;2022-10-19T18:07:20;6.30;1.00
18317;DHT22;9284;52.298;21.164;2022-10-19T18:09:51;6.30;99.90
18317;DHT22;9284;52.298;21.164;2022-10-19T18:12:20;6.30;1.00
18317;DHT22;9284;52.298;21.164;2022-10-19T18:14:49;6.30;1.00
18317;DHT22;9284;52.298;21.164;2022-10-19T18:17:17;6.30;99.90
18317;DHT22;9284;52.298;21.164;2022-10-19T18:19:52;6.30;1.00
18317;DHT22;9284;52.298;21.164;2022-10-19T18:22:22;6.30;99.90
18317;DHT22;9284;52.298;21.164;2022-10-19T18:24:50;6.20;38.40
18317;DHT22;9284;52.298;21.164;2022-10-19T18:27:19;6.20;1.00
18317;DHT22;9284;52.298;21.164;2022-10-19T18:29:47;6.20;99.90
18317;DHT22;9284;52.298;21.164;2022-10-19T18:32:15;6.10;1.00
18317;DHT22;9284;52.298;21.164;2022-10-19T18:34:44;6.10;1.00
18317;DHT22;9284;52.298;21.164;2022-10-19T18:37:12;6.10;1.00
18317;DHT22;9284;52.298;21.164;2022-10-19T18:39:42;6.10;1.00
18317;DHT22;9284;52.298;21.164;2022-10-19T18:42:10;6.00;99.90
18317;DHT22;9284;52.298;21.164;2022-10-19T18:44:39;5.90;99.90
18317;DHT22;9284;52.298;21.164;2022-10-19T18:47:07;5.90;99.90
18317;DHT22;9284;52.298;21.164;2022-10-19T18:49:35;5.80;99.90
18317;DHT22;9284;52.298;21.164;2022-10-19T18:52:04;5.80;1.00
18317;DHT22;9284;52.298;21.164;2022-10-19T18:54:32;5.70;1.00
18317;DHT22;9284;52.298;21.164;2022-10-19T18:57:02;5.60;1.00
18317;DHT22;9284;52.298;21.164;2022-10-19T18:59:30;5.60;1.00
18317;DHT22;9284;52.298;21.164;2022-10-19T19:01:59;5.60;53.90
18317;DHT22;9284;52.298;21.164;2022-10-19T19:04:27;5.60;99.90
18317;DHT22;9284;52.298;21.164;2022-10-19T19:06:56;5.50;1.00
18317;DHT22;9284;52.298;21.164;2022-10-19T19:09:24;5.50;1.00
18317;DHT22;9284;52.298;21.164;2022-10-19T19:11:52;5.40;1.00
18317;DHT22;9284;52.298;21.164;2022-10-19T19:14:25;5.40;1.00
18317;DHT22;9284;52.298;21.164;2022-10-19T19:16:54;5.40;1.00
18317;DHT22;9284;52.298;21.164;2022-10-19T19:19:22;5.40;1.00
18317;DHT22;9284;52.298;21.164;2022-10-19T19:21:53;5.30;1.00
18317;DHT22;9284;52.298;21.164;2022-10-19T19:24:22;5.30;1.00
18317;DHT22;9284;52.298;21.164;2022-10-19T19:26:54;5.20;1.00
18317;DHT22;9284;52.298;21.164;2022-10-19T19:29:26;5.20;1.00
18317;DHT22;9284;52.298;21.164;2022-10-19T19:31:59;5.10;1.00
18317;DHT22;9284;52.298;21.164;2022-10-19T19:34:28;5.20;1.00
18317;DHT22;9284;52.298;21.164;2022-10-19T19:36:56;5.20;1.00
18317;DHT22;9284;52.298;21.164;2022-10-19T19:39:25;5.20;1.00
18317;DHT22;9284;52.298;21.164;2022-10-19T19:41:54;5.20;1.00
18317;DHT22;9284;52.298;21.164;2022-10-19T19:44:27;5.20;1.00
18317;DHT22;9284;52.298;21.164;2022-10-19T19:46:56;5.20;1.00
18317;DHT22;9284;52.298;21.164;2022-10-19T19:49:26;5.20;1.00
18317;DHT22;9284;52.298;21.164;2022-10-19T19:51:54;5.10;1.00
18317;DHT22;9284;52.298;21.164;2022-10-19T19:54:23;5.20;1.00